Terminal Aerodrome Forecast
Issued by NWS

Home | Current Version | Previous Version | Text Only | Print | Product List | Glossary On
Versions: 1 2 3 4 5 6 7 8 9 10 11 12 13 14 15
261
FTUS45 KRIW 191720
TAFCPR
TAF
KCPR 191720Z 1918/2018 22018G27KT P6SM SCT200
     FM200100 22015KT P6SM FEW100 FEW250
     FM200300 22011KT P6SM FEW100 FEW250 WS010/23040KT
     FM201400 23015KT P6SM SCT080 WS010/24045KT
     FM201600 23020G30KT P6SM FEW080 WS015/24045KT=

USA.gov is the U.S. government's official web portal to all federal, state and local government web resources and services.